createdAt,value
2023-04-15T00:01:20.861Z,100071.54
2023-04-15T00:03:51.366Z,100072.83
2023-04-15T00:06:19.671Z,100076.44
2023-04-15T00:08:48.914Z,100082.38
2023-04-15T00:11:17.468Z,100074.00
2023-04-15T00:13:46.106Z,100066.27
2023-04-15T00:16:14.459Z,100063.15
2023-04-15T00:18:42.414Z,100062.88
2023-04-15T00:21:14.470Z,100058.39
2023-04-15T00:23:42.600Z,100056.65
2023-04-15T00:26:10.770Z,100060.73
2023-04-15T00:28:42.734Z,100064.41
2023-04-15T00:31:11.146Z,100063.73
2023-04-15T00:33:39.080Z,100058.55
2023-04-15T00:36:10.045Z,100057.95
2023-04-15T00:38:41.531Z,100065.77
2023-04-15T00:41:09.775Z,100061.08
2023-04-15T00:43:38.350Z,100068.80
2023-04-15T00:46:06.598Z,100067.27
2023-04-15T00:48:34.500Z,100064.74
2023-04-15T00:51:02.526Z,100063.05
2023-04-15T00:53:30.674Z,100061.04
2023-04-15T00:55:58.986Z,100055.20
2023-04-15T00:58:28.120Z,100057.84
2023-04-15T01:00:57.304Z,100059.90
2023-04-15T01:03:25.958Z,100065.48
2023-04-15T01:05:58.288Z,100072.95
2023-04-15T01:08:28.286Z,100071.71
2023-04-15T01:11:01.426Z,100067.73
2023-04-15T01:13:30.912Z,100064.77
2023-04-15T01:15:59.226Z,100063.02
2023-04-15T01:18:28.065Z,100063.92
2023-04-15T01:20:56.522Z,100067.60
2023-04-15T01:23:26.390Z,100069.45
2023-04-15T01:25:55.420Z,100068.33
2023-04-15T01:28:23.994Z,100069.79
2023-04-15T01:31:07.526Z,100068.15
2023-04-15T01:33:38.789Z,100067.92
2023-04-15T01:36:11.129Z,100070.50
2023-04-15T01:38:40.090Z,100076.57
2023-04-15T01:41:08.272Z,100076.19
2023-04-15T01:43:39.108Z,100084.41
2023-04-15T01:46:07.267Z,100086.74
2023-04-15T01:48:35.518Z,100089.64
2023-04-15T01:51:05.090Z,100088.73
2023-04-15T01:53:34.265Z,100088.56
2023-04-15T01:56:04.254Z,100093.46
2023-04-15T01:58:32.619Z,100096.77
2023-04-15T02:01:04.063Z,100097.13
2023-04-15T02:03:34.349Z,100100.03
2023-04-15T02:06:02.716Z,100104.17
2023-04-15T02:08:36.024Z,100106.44
2023-04-15T02:11:05.381Z,100108.23
2023-04-15T02:13:33.365Z,100110.66
2023-04-15T02:16:01.629Z,100110.34
2023-04-15T02:18:31.954Z,100115.08
2023-04-15T02:21:00.440Z,100117.19
2023-04-15T02:23:28.566Z,100124.66
2023-04-15T02:25:58.325Z,100126.64
2023-04-15T02:28:27.408Z,100128.60
2023-04-15T02:30:57.686Z,100128.26
2023-04-15T02:33:26.173Z,100129.55
2023-04-15T02:35:54.658Z,100129.70
2023-04-15T02:38:22.775Z,100127.96
2023-04-15T02:40:51.209Z,100120.60
2023-04-15T02:43:20.662Z,100126.77
2023-04-15T02:45:48.801Z,100127.19
2023-04-15T02:48:19.533Z,100134.41
2023-04-15T02:50:48.733Z,100135.30
2023-04-15T02:53:17.660Z,100139.98
2023-04-15T02:55:46.318Z,100145.92
2023-04-15T02:58:15.121Z,100144.42
2023-04-15T03:00:43.097Z,100143.63
2023-04-15T03:03:11.749Z,100147.64
2023-04-15T03:05:39.744Z,100151.74
2023-04-15T03:08:08.933Z,100149.95
2023-04-15T03:10:37.109Z,100148.20
2023-04-15T03:13:05.056Z,100149.42
2023-04-15T03:15:34.017Z,100154.27
2023-04-15T03:18:03.174Z,100152.02
2023-04-15T03:20:31.666Z,100145.20
2023-04-15T03:23:00.040Z,100143.67
2023-04-15T03:25:28.740Z,100144.56
2023-04-15T03:27:56.955Z,100144.44
2023-04-15T03:30:32.670Z,100143.42
2023-04-15T03:33:01.908Z,100140.16
2023-04-15T03:35:30.757Z,100141.65
2023-04-15T03:37:58.909Z,100142.65
2023-04-15T03:40:27.050Z,100142.77
2023-04-15T03:42:55.235Z,100144.90
2023-04-15T03:45:24.221Z,100142.02
2023-04-15T03:47:52.188Z,100146.20
2023-04-15T03:50:21.953Z,100145.97
2023-04-15T03:52:51.318Z,100152.77
2023-04-15T03:55:20.218Z,100151.05
2023-04-15T03:57:48.575Z,100149.66
2023-04-15T04:00:16.748Z,100145.31
2023-04-15T04:02:46.891Z,100147.40
2023-04-15T04:05:14.913Z,100147.10
2023-04-15T04:07:43.948Z,100146.08
2023-04-15T04:10:11.993Z,100138.91
2023-04-15T04:12:40.079Z,100141.32
2023-04-15T04:15:10.800Z,100146.17
2023-04-15T04:17:40.833Z,100150.80
2023-04-15T04:20:09.192Z,100154.16
2023-04-15T04:22:46.689Z,100156.05
2023-04-15T04:25:15.009Z,100157.27
2023-04-15T04:27:42.995Z,100153.52
2023-04-15T04:30:17.935Z,100153.35
2023-04-15T04:32:49.903Z,100155.64
2023-04-15T04:35:18.017Z,100157.73
2023-04-15T04:37:50.936Z,100160.72
2023-04-15T04:40:19.010Z,100162.71
2023-04-15T04:42:47.147Z,100163.39
2023-04-15T04:45:19.847Z,100164.94
2023-04-15T04:47:48.713Z,100164.27
2023-04-15T04:50:17.097Z,100164.98
2023-04-15T04:52:51.297Z,100164.29
2023-04-15T04:55:19.484Z,100172.57
2023-04-15T04:57:47.550Z,100166.88
2023-04-15T05:00:19.165Z,100168.40
2023-04-15T05:02:48.321Z,100162.39
2023-04-15T05:05:16.606Z,100162.71
2023-04-15T05:07:47.393Z,100157.70
2023-04-15T05:10:17.636Z,100161.83
2023-04-15T05:12:45.995Z,100163.14
2023-04-15T05:15:16.695Z,100166.21
2023-04-15T05:17:44.836Z,100167.60
2023-04-15T05:20:13.875Z,100176.33
2023-04-15T05:22:43.374Z,100174.99
2023-04-15T05:25:16.992Z,100174.90
2023-04-15T05:27:46.412Z,100178.73
2023-04-15T05:30:14.408Z,100174.98
2023-04-15T05:32:43.764Z,100180.71
2023-04-15T05:35:12.465Z,100186.69
2023-04-15T05:37:40.950Z,100185.92
2023-04-15T05:40:10.661Z,100184.70
2023-04-15T05:42:38.559Z,100188.85
2023-04-15T05:45:13.738Z,100187.33
2023-04-15T05:47:42.664Z,100188.11
2023-04-15T05:50:11.171Z,100193.13
2023-04-15T05:52:39.894Z,100193.76
2023-04-15T05:55:08.783Z,100197.48
2023-04-15T05:57:36.689Z,100201.50
2023-04-15T06:00:05.591Z,100195.59
2023-04-15T06:02:38.546Z,100193.86
2023-04-15T06:05:10.957Z,100194.16
2023-04-15T06:07:39.056Z,100198.79
2023-04-15T06:10:08.387Z,100197.21
2023-04-15T06:12:38.842Z,100197.77
2023-04-15T06:15:09.985Z,100198.64
2023-04-15T06:17:38.350Z,100201.33
2023-04-15T06:20:15.388Z,100206.77
2023-04-15T06:22:47.006Z,100207.86
2023-04-15T06:25:15.039Z,100209.42
2023-04-15T06:27:43.096Z,100204.27
2023-04-15T06:30:11.318Z,100202.09
2023-04-15T06:32:39.941Z,100206.24
2023-04-15T06:35:08.246Z,100211.34
2023-04-15T06:37:36.504Z,100215.23
2023-04-15T06:40:05.324Z,100214.67
2023-04-15T06:42:34.086Z,100222.14
2023-04-15T06:45:02.291Z,100217.56
2023-04-15T06:47:30.772Z,100216.92
2023-04-15T06:49:58.918Z,100217.84
2023-04-15T06:52:30.135Z,100222.17
2023-04-15T06:54:59.730Z,100223.17
2023-04-15T06:57:29.031Z,100220.19
2023-04-15T06:59:59.062Z,100220.71
2023-04-15T07:02:29.785Z,100218.31
2023-04-15T07:04:57.896Z,100224.30
2023-04-15T07:07:30.640Z,100226.20
2023-04-15T07:09:58.706Z,100225.57
2023-04-15T07:12:26.604Z,100228.42
2023-04-15T07:14:54.766Z,100231.05
2023-04-15T07:17:23.010Z,100231.16
2023-04-15T07:19:51.496Z,100230.42
2023-04-15T07:22:19.436Z,100231.02
2023-04-15T07:24:47.858Z,100231.39
2023-04-15T07:27:15.907Z,100229.46
2023-04-15T07:29:44.242Z,100225.95
2023-04-15T07:32:12.345Z,100223.91
2023-04-15T07:34:41.746Z,100227.33
2023-04-15T07:37:09.883Z,100228.20
2023-04-15T07:39:38.133Z,100230.39
2023-04-15T07:42:08.721Z,100226.54
2023-04-15T07:44:37.551Z,100230.98
2023-04-15T07:47:05.463Z,100239.29
2023-04-15T07:49:38.076Z,100242.41
2023-04-15T07:52:06.027Z,100247.45
2023-04-15T07:54:35.124Z,100249.15
2023-04-15T07:57:03.413Z,100244.08
2023-04-15T07:59:34.455Z,100246.56
2023-04-15T08:02:03.536Z,100251.08
2023-04-15T08:04:32.666Z,100253.88
2023-04-15T08:07:02.045Z,100248.02
2023-04-15T08:09:31.375Z,100239.02
2023-04-15T08:11:59.356Z,100237.86
2023-04-15T08:14:29.180Z,100239.16
2023-04-15T08:16:58.260Z,100239.79
2023-04-15T08:19:26.379Z,100243.34
2023-04-15T08:21:55.120Z,100242.84
2023-04-15T08:24:24.336Z,100241.37
2023-04-15T08:26:58.162Z,100246.14
2023-04-15T08:29:27.400Z,100252.34
2023-04-15T08:31:55.294Z,100250.29
2023-04-15T08:34:26.568Z,100249.77
2023-04-15T08:36:57.106Z,100257.39
2023-04-15T08:39:26.320Z,100249.71
2023-04-15T08:42:05.671Z,100245.83
2023-04-15T08:44:37.013Z,100240.55
2023-04-15T08:47:08.345Z,100242.08
2023-04-15T08:49:39.617Z,100240.28
2023-04-15T08:52:12.527Z,100246.08
2023-04-15T08:54:42.273Z,100243.08
2023-04-15T08:57:10.160Z,100243.23
2023-04-15T08:59:38.841Z,100242.39
2023-04-15T09:02:08.617Z,100246.42
2023-04-15T09:04:36.577Z,100247.20
2023-04-15T09:07:04.941Z,100251.35
2023-04-15T09:09:33.873Z,100248.63
2023-04-15T09:12:02.151Z,100255.96
2023-04-15T09:14:33.924Z,100256.16
2023-04-15T09:17:04.335Z,100246.46
2023-04-15T09:19:36.168Z,100249.25
2023-04-15T09:22:04.193Z,100255.92
2023-04-15T09:24:40.403Z,100254.20
2023-04-15T09:27:08.598Z,100252.04
2023-04-15T09:29:37.377Z,100253.20
2023-04-15T09:32:13.015Z,100252.58
2023-04-15T09:34:41.961Z,100262.54
2023-04-15T09:37:11.038Z,100264.67
2023-04-15T09:39:50.155Z,100262.83
2023-04-15T09:42:24.445Z,100257.78
2023-04-15T09:44:56.072Z,100258.89
2023-04-15T09:47:31.439Z,100257.49
2023-04-15T09:50:00.613Z,100259.48
2023-04-15T09:52:29.172Z,100265.83
2023-04-15T09:54:58.136Z,100261.74
2023-04-15T09:57:33.866Z,100268.29
2023-04-15T10:00:06.815Z,100267.76
2023-04-15T10:02:36.832Z,100272.87
2023-04-15T10:05:06.157Z,100274.73
2023-04-15T10:07:35.370Z,100280.50
2023-04-15T10:10:04.522Z,100278.11
2023-04-15T10:12:33.660Z,100278.77
2023-04-15T10:15:05.140Z,100278.36
2023-04-15T10:17:35.316Z,100279.83
2023-04-15T10:20:05.263Z,100282.88
2023-04-15T10:22:33.910Z,100279.92
2023-04-15T10:25:02.301Z,100278.63
2023-04-15T10:27:30.772Z,100276.61
2023-04-15T10:29:58.764Z,100283.22
2023-04-15T10:32:27.265Z,100287.71
2023-04-15T10:34:55.403Z,100285.59
2023-04-15T10:37:39.267Z,100286.75
2023-04-15T10:40:27.418Z,100289.94
2023-04-15T10:42:56.627Z,100292.16
2023-04-15T10:45:44.911Z,100294.27
2023-04-15T10:48:12.973Z,100301.95
2023-04-15T10:50:41.180Z,100295.25
2023-04-15T10:53:10.980Z,100298.56
2023-04-15T10:55:38.861Z,100293.25
2023-04-15T10:58:08.083Z,100293.29
2023-04-15T11:00:38.056Z,100298.55
2023-04-15T11:03:07.707Z,100298.35
2023-04-15T11:05:39.406Z,100297.19
2023-04-15T11:08:08.910Z,100291.23
2023-04-15T11:10:37.983Z,100290.48
2023-04-15T11:13:17.158Z,100295.63
2023-04-15T11:15:46.117Z,100284.96
2023-04-15T11:18:17.160Z,100289.23
2023-04-15T11:20:59.784Z,100289.08
2023-04-15T11:23:39.809Z,100293.84
2023-04-15T11:26:12.341Z,100300.92
2023-04-15T11:28:47.624Z,100298.09
2023-04-15T11:31:20.242Z,100290.68
2023-04-15T11:33:59.591Z,100282.93
2023-04-15T11:36:28.999Z,100287.33
2023-04-15T11:38:59.019Z,100294.39
2023-04-15T11:41:27.793Z,100295.44
2023-04-15T11:43:56.342Z,100296.36
2023-04-15T11:46:30.797Z,100295.59
2023-04-15T11:49:00.218Z,100294.59
2023-04-15T11:51:32.649Z,100282.27
2023-04-15T11:54:01.281Z,100281.91
2023-04-15T11:56:29.550Z,100275.69
2023-04-15T11:59:01.234Z,100275.61
2023-04-15T12:01:33.574Z,100279.39
2023-04-15T12:04:04.123Z,100277.95
2023-04-15T12:06:39.204Z,100274.42
2023-04-15T12:09:07.287Z,100275.49
2023-04-15T12:11:37.356Z,100272.55
2023-04-15T12:14:08.035Z,100271.84
2023-04-15T12:16:48.008Z,100271.98
2023-04-15T12:19:19.786Z,100267.16
2023-04-15T12:21:48.667Z,100265.19
2023-04-15T12:24:19.843Z,100260.39
2023-04-15T12:26:49.900Z,100259.58
2023-04-15T12:29:17.991Z,100259.80
2023-04-15T12:31:51.442Z,100256.55
2023-04-15T12:34:27.100Z,100259.20
2023-04-15T12:36:55.734Z,100248.67
2023-04-15T12:39:25.428Z,100240.13
2023-04-15T12:41:53.606Z,100236.30
2023-04-15T12:44:23.099Z,100228.13
2023-04-15T12:46:52.968Z,100237.08
2023-04-15T12:49:22.624Z,100237.23
2023-04-15T12:51:51.512Z,100239.81
2023-04-15T12:54:19.492Z,100247.16
2023-04-15T12:56:48.280Z,100247.36
2023-04-15T12:59:17.841Z,100241.35
2023-04-15T13:01:47.429Z,100244.13
2023-04-15T13:04:16.479Z,100238.12
2023-04-15T13:06:45.078Z,100243.17
2023-04-15T13:09:13.087Z,100240.59
2023-04-15T13:11:41.393Z,100245.81
2023-04-15T13:14:11.448Z,100238.23
2023-04-15T13:16:40.040Z,100240.21
2023-04-15T13:19:08.047Z,100241.01
2023-04-15T13:21:36.757Z,100236.38
2023-04-15T13:24:07.069Z,100239.28
2023-04-15T13:26:36.299Z,100245.39
2023-04-15T13:29:05.302Z,100248.69
2023-04-15T13:31:33.370Z,100241.15
2023-04-15T13:34:01.531Z,100238.86
2023-04-15T13:36:29.675Z,100233.23
2023-04-15T13:38:57.874Z,100236.20
2023-04-15T13:41:26.431Z,100241.02
2023-04-15T13:43:54.425Z,100241.54
2023-04-15T13:46:23.015Z,100242.30
2023-04-15T13:48:51.216Z,100247.80
2023-04-15T13:51:19.138Z,100252.33
2023-04-15T13:53:47.289Z,100248.45
2023-04-15T13:56:15.134Z,100246.29
2023-04-15T13:58:43.410Z,100246.92
2023-04-15T14:01:11.385Z,100239.81
2023-04-15T14:03:39.879Z,100248.74
2023-04-15T14:06:08.626Z,100244.66
2023-04-15T14:08:36.743Z,100247.45
2023-04-15T14:11:06.633Z,100241.38
2023-04-15T14:13:34.795Z,100245.98
2023-04-15T14:16:02.927Z,100250.77
2023-04-15T14:18:31.174Z,100253.69
2023-04-15T14:20:59.363Z,100259.50
2023-04-15T14:23:27.349Z,100260.34
2023-04-15T14:25:55.406Z,100262.49
2023-04-15T14:28:24.581Z,100272.50
2023-04-15T14:30:52.478Z,100271.24
2023-04-15T14:33:21.882Z,100271.64
2023-04-15T14:35:50.476Z,100276.60
2023-04-15T14:38:19.335Z,100280.88
2023-04-15T14:40:48.552Z,100279.62
2023-04-15T14:43:17.349Z,100283.84
2023-04-15T14:45:45.759Z,100275.63
2023-04-15T14:48:14.195Z,100285.55
2023-04-15T14:50:43.993Z,100289.14
2023-04-15T14:53:12.290Z,100295.16
2023-04-15T14:55:42.117Z,100296.52
2023-04-15T14:58:11.137Z,100297.97
2023-04-15T15:00:42.475Z,100298.11
2023-04-15T15:03:14.989Z,100301.50
2023-04-15T15:05:45.099Z,100299.02
2023-04-15T15:08:14.003Z,100300.11
2023-04-15T15:10:48.497Z,100306.25
2023-04-15T15:13:18.890Z,100296.48
2023-04-15T15:15:49.422Z,100289.94
2023-04-15T15:18:19.501Z,100291.08
2023-04-15T15:20:48.131Z,100289.67
2023-04-15T15:23:16.495Z,100287.41
2023-04-15T15:25:44.620Z,100289.83
2023-04-15T15:28:12.875Z,100288.71
2023-04-15T15:30:41.175Z,100289.41
2023-04-15T15:33:09.339Z,100286.75
2023-04-15T15:35:37.489Z,100282.60
2023-04-15T15:38:06.419Z,100284.40
2023-04-15T15:40:34.954Z,100278.78
2023-04-15T15:43:02.922Z,100278.89
2023-04-15T15:45:31.641Z,100281.32
2023-04-15T15:48:00.240Z,100283.01
2023-04-15T15:50:28.391Z,100286.75
2023-04-15T15:52:56.495Z,100285.95
2023-04-15T15:55:25.940Z,100284.63
2023-04-15T15:57:54.462Z,100283.03
2023-04-15T16:00:23.849Z,100282.08
2023-04-15T16:03:06.606Z,100286.67
2023-04-15T16:05:36.194Z,100287.58
2023-04-15T16:08:04.163Z,100282.95
2023-04-15T16:10:32.259Z,100282.86
2023-04-15T16:13:00.268Z,100276.88
2023-04-15T16:15:28.266Z,100271.34
2023-04-15T16:17:56.579Z,100260.88
2023-04-15T16:20:24.605Z,100263.52
2023-04-15T16:22:52.545Z,100266.28
2023-04-15T16:25:20.672Z,100273.16
2023-04-15T16:27:59.395Z,100281.83
2023-04-15T16:30:31.582Z,100295.25
2023-04-15T16:32:59.683Z,100295.15
2023-04-15T16:35:28.415Z,100298.70
2023-04-15T16:37:56.593Z,100290.98
2023-04-15T16:40:26.173Z,100287.00
2023-04-15T16:42:54.236Z,100291.66
2023-04-15T16:45:22.328Z,100292.30
2023-04-15T16:47:50.565Z,100288.46
2023-04-15T16:50:18.666Z,100287.30
2023-04-15T16:52:46.889Z,100294.05
2023-04-15T16:55:14.774Z,100296.44
2023-04-15T16:58:00.335Z,100295.27
2023-04-15T17:00:37.165Z,100306.92
2023-04-15T17:03:06.040Z,100310.88
2023-04-15T17:05:34.412Z,100325.68
2023-04-15T17:08:02.310Z,100333.76
2023-04-15T17:10:31.716Z,100343.88
2023-04-15T17:13:00.406Z,100350.12
2023-04-15T17:15:28.513Z,100347.68
2023-04-15T17:17:56.646Z,100352.17
2023-04-15T17:20:24.704Z,100355.59
2023-04-15T17:22:52.908Z,100358.84
2023-04-15T17:25:21.094Z,100367.21
2023-04-15T17:27:49.383Z,100371.48
2023-04-15T17:30:17.498Z,100380.69
2023-04-15T17:32:46.089Z,100391.19
2023-04-15T17:35:14.060Z,100402.17
2023-04-15T17:37:42.785Z,100399.55
2023-04-15T17:40:11.896Z,100399.55
2023-04-15T17:42:41.560Z,100401.10
2023-04-15T17:45:10.200Z,100406.76
2023-04-15T17:47:38.274Z,100420.09
2023-04-15T17:50:07.695Z,100420.17
2023-04-15T17:52:36.091Z,100419.06
2023-04-15T17:55:04.433Z,100420.90
2023-04-15T17:57:32.709Z,100415.12
2023-04-15T18:00:01.176Z,100407.75
2023-04-15T18:02:29.703Z,100403.83
2023-04-15T18:04:58.246Z,100402.39
2023-04-15T18:07:27.567Z,100403.43
2023-04-15T18:09:56.071Z,100396.87
2023-04-15T18:12:24.299Z,100390.89
2023-04-15T18:14:53.204Z,100385.29
2023-04-15T18:17:21.298Z,100384.22
2023-04-15T18:19:49.509Z,100384.31
2023-04-15T18:22:18.003Z,100382.46
2023-04-15T18:24:46.916Z,100386.34
2023-04-15T18:27:15.478Z,100378.35
2023-04-15T18:29:43.836Z,100377.38
2023-04-15T18:32:12.088Z,100377.95
2023-04-15T18:34:40.390Z,100375.51
2023-04-15T18:37:08.696Z,100373.13
2023-04-15T18:39:37.287Z,100375.08
2023-04-15T18:42:05.896Z,100369.30
2023-04-15T18:44:35.611Z,100364.83
2023-04-15T18:47:03.880Z,100363.77
2023-04-15T18:49:33.436Z,100357.56
2023-04-15T18:52:01.736Z,100355.93
2023-04-15T18:54:30.666Z,100354.77
2023-04-15T18:57:00.027Z,100351.21
2023-04-15T18:59:30.540Z,100357.88
2023-04-15T19:01:59.982Z,100361.92
2023-04-15T19:04:31.412Z,100365.52
2023-04-15T19:06:59.448Z,100375.98
2023-04-15T19:09:28.843Z,100381.36
2023-04-15T19:11:57.063Z,100390.20
2023-04-15T19:14:25.149Z,100391.08
2023-04-15T19:16:53.252Z,100391.20
2023-04-15T19:19:21.348Z,100388.65
2023-04-15T19:21:50.387Z,100391.01
2023-04-15T19:24:20.264Z,100391.75
2023-04-15T19:26:49.580Z,100393.13
2023-04-15T19:29:17.714Z,100394.81
2023-04-15T19:31:45.594Z,100395.59
2023-04-15T19:34:13.828Z,100393.36
2023-04-15T19:36:42.356Z,100388.90
2023-04-15T19:39:10.396Z,100387.30
2023-04-15T19:41:39.876Z,100387.27
2023-04-15T19:44:07.889Z,100389.99
2023-04-15T19:46:36.048Z,100387.70
2023-04-15T19:49:04.648Z,100385.89
2023-04-15T19:51:33.507Z,100395.83
2023-04-15T19:54:01.394Z,100399.42
2023-04-15T19:56:29.946Z,100399.92
2023-04-15T19:58:59.881Z,100402.98
2023-04-15T20:01:27.813Z,100402.02
2023-04-15T20:03:57.378Z,100401.42
2023-04-15T20:06:26.990Z,100402.89
2023-04-15T20:08:55.456Z,100401.80
2023-04-15T20:12:05.054Z,100398.60
2023-04-15T20:14:17.788Z,100398.70
2023-04-15T20:16:45.778Z,100407.30
2023-04-15T20:19:14.127Z,100397.40
2023-04-15T20:21:42.450Z,100402.20
2023-04-15T20:24:10.965Z,100397.42
2023-04-15T20:26:39.354Z,100402.60
2023-04-15T20:29:07.566Z,100401.59
2023-04-15T20:31:36.925Z,100404.37
2023-04-15T20:34:04.975Z,100408.63
2023-04-15T20:36:33.410Z,100410.77
2023-04-15T20:39:01.306Z,100408.55
2023-04-15T20:41:29.723Z,100400.55
2023-04-15T20:43:57.673Z,100401.75
2023-04-15T20:46:27.289Z,100396.52
2023-04-15T20:48:56.111Z,100400.40
2023-04-15T20:51:24.075Z,100401.62
2023-04-15T20:53:52.311Z,100404.90
2023-04-15T20:56:20.440Z,100401.52
2023-04-15T20:58:48.386Z,100399.13
2023-04-15T21:01:16.475Z,100401.48
2023-04-15T21:03:44.683Z,100401.45
2023-04-15T21:06:12.872Z,100396.31
2023-04-15T21:08:40.819Z,100399.11
2023-04-15T21:11:09.902Z,100403.63
2023-04-15T21:13:37.941Z,100401.75
2023-04-15T21:16:05.960Z,100400.70
2023-04-15T21:18:34.713Z,100403.29
2023-04-15T21:21:03.185Z,100401.81
2023-04-15T21:23:31.522Z,100406.53
2023-04-15T21:25:59.538Z,100409.79
2023-04-15T21:28:30.550Z,100416.67
2023-04-15T21:30:59.280Z,100414.33
2023-04-15T21:33:27.244Z,100415.54
2023-04-15T21:35:55.047Z,100415.67
2023-04-15T21:38:23.566Z,100417.73
2023-04-15T21:40:51.699Z,100415.95
2023-04-15T21:43:22.893Z,100419.31
2023-04-15T21:46:21.111Z,100419.31
2023-04-15T21:48:40.703Z,100424.64
2023-04-15T21:51:08.792Z,100426.16
2023-04-15T21:53:37.031Z,100424.23
2023-04-15T21:56:05.897Z,100419.05
2023-04-15T21:58:35.400Z,100421.73
2023-04-15T22:01:04.242Z,100424.46
2023-04-15T22:03:34.064Z,100431.58
2023-04-15T22:06:03.113Z,100432.11
2023-04-15T22:08:38.177Z,100438.66
2023-04-15T22:11:18.434Z,100440.02
2023-04-15T22:13:47.130Z,100435.27
2023-04-15T22:16:16.220Z,100433.55
2023-04-15T22:18:44.060Z,100436.30
2023-04-15T22:21:13.062Z,100437.34
2023-04-15T22:23:41.199Z,100435.23
2023-04-15T22:26:09.123Z,100438.45
2023-04-15T22:28:37.401Z,100435.16
2023-04-15T22:31:05.554Z,100433.84
2023-04-15T22:33:34.020Z,100429.52
2023-04-15T22:36:02.475Z,100432.14
2023-04-15T22:38:30.653Z,100429.98
2023-04-15T22:40:58.639Z,100429.19
2023-04-15T22:43:27.463Z,100433.77
2023-04-15T22:45:55.575Z,100434.05
2023-04-15T22:48:23.990Z,100429.85
2023-04-15T22:50:51.949Z,100427.20
2023-04-15T22:53:20.132Z,100433.36
2023-04-15T22:55:48.242Z,100431.92
2023-04-15T22:58:18.359Z,100438.69
2023-04-15T23:00:46.746Z,100440.70
2023-04-15T23:03:14.882Z,100441.10
2023-04-15T23:05:45.027Z,100443.43
2023-04-15T23:08:13.063Z,100447.06
2023-04-15T23:10:44.625Z,100448.63
2023-04-15T23:13:12.581Z,100447.57
2023-04-15T23:15:40.616Z,100448.67
2023-04-15T23:18:08.647Z,100451.82
2023-04-15T23:20:36.711Z,100453.19
2023-04-15T23:23:04.669Z,100452.09
2023-04-15T23:25:32.578Z,100452.41
2023-04-15T23:28:00.930Z,100450.40
2023-04-15T23:30:30.053Z,100451.48
2023-04-15T23:32:58.185Z,100454.07
2023-04-15T23:35:27.479Z,100456.25
2023-04-15T23:37:55.598Z,100454.30
2023-04-15T23:40:23.640Z,100457.84
2023-04-15T23:42:52.033Z,100456.84
2023-04-15T23:45:20.322Z,100452.95
2023-04-15T23:47:48.381Z,100459.08
2023-04-15T23:50:16.466Z,100461.30
2023-04-15T23:52:44.533Z,100464.00
2023-04-15T23:55:12.400Z,100464.17
2023-04-15T23:57:41.028Z,100466.90
